Time;durP1;ratioP1;P1;durP2;ratioP2;P2;SDS_P1;SDS_P2;PMS_P1;PMS_P2;Temp;Humidity;BMP_temperature;BMP_pressure;BME280_temperature;BME280_humidity;BME280_pressure;Samples;Min_cycle;Max_cycle;Signal;HPM_P1;HPM_P2
2023/07/02 00:01:37;;;;;;;6.00;2.90;;;19.40;89.20;;;;;;4937044;29;20038;-82
2023/07/02 00:04:02;;;;;;;5.82;2.70;;;19.40;89.30;;;;;;4936912;29;20051;-83
2023/07/02 00:06:28;;;;;;;6.55;2.90;;;19.40;89.20;;;;;;4953641;29;20024;-83
2023/07/02 00:08:53;;;;;;;7.05;3.10;;;19.40;89.10;;;;;;4936958;29;20503;-83
2023/07/02 00:11:19;;;;;;;5.45;2.70;;;19.40;89.00;;;;;;4954050;29;20078;-83
2023/07/02 00:13:44;;;;;;;5.95;2.83;;;19.40;88.90;;;;;;4937105;29;20038;-83
2023/07/02 00:16:10;;;;;;;5.82;2.85;;;19.50;88.80;;;;;;4936785;29;20201;-81
2023/07/02 00:18:35;;;;;;;6.07;3.03;;;19.50;88.80;;;;;;4938464;29;20027;-83
2023/07/02 00:21:02;;;;;;;4.40;2.80;;;19.50;88.70;;;;;;4957988;29;20540;-84
2023/07/02 00:23:28;;;;;;;6.20;2.92;;;19.50;89.20;;;;;;4940646;29;20024;-82
2023/07/02 00:25:54;;;;;;;5.82;3.03;;;19.50;88.50;;;;;;4940621;29;20023;-83
2023/07/02 00:28:20;;;;;;;6.00;3.03;;;19.50;88.50;;;;;;4940089;29;20562;-83
2023/07/02 00:30:45;;;;;;;6.10;3.08;;;19.50;88.50;;;;;;4940452;29;20031;-81
2023/07/02 00:33:10;;;;;;;5.55;3.22;;;19.50;88.60;;;;;;4957623;29;20032;-83
2023/07/02 00:35:37;;;;;;;6.22;3.42;;;19.50;88.60;;;;;;4940410;29;20035;-83
2023/07/02 00:38:02;;;;;;;7.13;3.28;;;19.40;89.10;;;;;;5030203;23;20491;-84
2023/07/02 00:40:28;;;;;;;6.78;3.50;;;19.40;88.70;;;;;;5014374;28;20055;-84
2023/07/02 00:42:53;;;;;;;7.15;3.45;;;19.40;88.80;;;;;;5022497;28;20402;-82
2023/07/02 00:45:19;;;;;;;5.50;3.60;;;19.40;89.00;;;;;;5022254;28;20429;-84
2023/07/02 00:47:45;;;;;;;7.03;3.65;;;19.40;89.10;;;;;;5017950;28;20101;-82
2023/07/02 00:50:11;;;;;;;5.93;3.25;;;19.40;89.20;;;;;;5002374;28;20490;-85
2023/07/02 00:52:38;;;;;;;7.00;3.80;;;19.40;89.30;;;;;;5002084;28;20522;-86
2023/07/02 00:55:04;;;;;;;6.35;3.67;;;19.40;89.40;;;;;;5001772;28;20044;-84
2023/07/02 00:57:29;;;;;;;6.13;4.00;;;19.40;89.50;;;;;;5001162;28;20025;-86
2023/07/02 00:59:57;;;;;;;7.80;4.03;;;19.40;89.50;;;;;;4988234;28;20375;-83
2023/07/02 01:02:25;;;;;;;7.05;3.85;;;19.30;89.50;;;;;;4982543;28;20032;-84
2023/07/02 01:04:52;;;;;;;8.35;4.18;;;19.40;89.70;;;;;;5019657;28;20467;-84
2023/07/02 01:07:17;;;;;;;8.02;3.85;;;19.30;89.60;;;;;;5001472;28;20087;-83
2023/07/02 01:09:43;;;;;;;8.70;4.70;;;19.40;89.70;;;;;;4994207;28;20026;-84
2023/07/02 01:12:10;;;;;;;7.45;4.22;;;19.30;89.60;;;;;;5018977;28;20057;-84
2023/07/02 01:14:39;;;;;;;7.32;4.43;;;19.30;89.70;;;;;;5002820;28;20038;-84
2023/07/02 01:17:06;;;;;;;7.60;4.00;;;19.30;89.70;;;;;;4980791;28;20041;-84
2023/07/02 01:19:51;;;;;;;8.10;4.10;;;19.30;89.70;;;;;;4998037;28;20033;-83
2023/07/02 01:22:17;;;;;;;6.40;4.07;;;19.30;89.70;;;;;;4999731;28;20534;-86
2023/07/02 01:24:43;;;;;;;8.85;4.40;;;19.30;89.70;;;;;;4998754;28;20033;-84
2023/07/02 01:27:10;;;;;;;5.97;4.00;;;19.30;89.70;;;;;;4998555;28;20021;-86
2023/07/02 01:29:36;;;;;;;6.85;3.90;;;19.30;89.90;;;;;;4994897;28;20511;-83
2023/07/02 01:32:02;;;;;;;6.63;3.95;;;19.30;89.70;;;;;;4979149;28;20097;-84
2023/07/02 01:34:28;;;;;;;6.47;4.13;;;19.30;89.70;;;;;;4997914;28;20062;-84
2023/07/02 01:36:53;;;;;;;7.80;4.07;;;19.30;90.00;;;;;;4979470;28;20072;-85
2023/07/02 01:39:19;;;;;;;8.18;4.05;;;19.30;89.70;;;;;;5012926;28;20076;-83
2023/07/02 01:41:55;;;;;;;7.38;3.90;;;19.30;89.70;;;;;;4998637;28;20026;-84
2023/07/02 01:44:22;;;;;;;7.53;4.05;;;19.30;89.50;;;;;;5016659;28;20053;-83
2023/07/02 01:46:48;;;;;;;7.03;3.75;;;19.40;89.50;;;;;;5016755;28;20030;-81
2023/07/02 01:49:15;;;;;;;6.40;3.53;;;19.30;89.30;;;;;;4982459;28;20034;-83
2023/07/02 01:51:45;;;;;;;6.55;3.67;;;19.40;89.30;;;;;;4978867;28;20507;-83
2023/07/02 01:54:11;;;;;;;5.60;3.63;;;19.40;89.20;;;;;;4996763;28;20081;-84
2023/07/02 01:56:36;;;;;;;6.53;3.78;;;19.40;89.10;;;;;;4994966;28;20030;-82
2023/07/02 01:59:02;;;;;;;7.10;3.55;;;19.40;89.00;;;;;;4980498;28;20521;-83
2023/07/02 02:01:27;;;;;;;5.40;3.45;;;19.40;89.00;;;;;;4978483;28;20034;-81
2023/07/02 02:03:53;;;;;;;4.90;3.33;;;19.40;89.00;;;;;;4996391;28;20037;-84
2023/07/02 02:06:18;;;;;;;5.65;3.72;;;19.40;89.00;;;;;;4978227;28;20121;-82
2023/07/02 02:08:44;;;;;;;6.45;3.63;;;19.40;89.00;;;;;;4978274;28;20025;-84
2023/07/02 02:11:09;;;;;;;6.35;3.83;;;19.40;89.00;;;;;;4984877;28;20037;-85
2023/07/02 02:13:35;;;;;;;7.25;3.80;;;19.40;89.10;;;;;;4995613;28;20084;-83
2023/07/02 02:16:00;;;;;;;8.68;4.00;;;19.40;89.20;;;;;;4997244;28;20383;-84
2023/07/02 02:18:26;;;;;;;6.60;3.80;;;19.30;89.20;;;;;;4993865;28;20503;-84
2023/07/02 02:20:51;;;;;;;6.82;3.92;;;19.40;89.50;;;;;;4996761;28;20033;-84
2023/07/02 02:23:17;;;;;;;6.85;4.03;;;19.40;89.50;;;;;;4996986;28;20513;-83
2023/07/02 02:25:42;;;;;;;7.25;3.90;;;19.30;89.60;;;;;;5000447;28;20018;-87
2023/07/02 02:28:07;;;;;;;6.50;3.88;;;19.30;89.70;;;;;;5005409;28;20054;-85
2023/07/02 02:30:33;;;;;;;5.93;3.70;;;19.30;89.70;;;;;;5003748;28;20406;-85
2023/07/02 02:32:58;;;;;;;6.50;3.85;;;19.30;89.80;;;;;;5022809;28;20034;-84
2023/07/02 02:35:24;;;;;;;7.13;3.78;;;19.30;89.80;;;;;;5006194;28;20065;-85
2023/07/02 02:37:49;;;;;;;7.68;4.10;;;19.30;89.80;;;;;;5005685;28;20347;-85
2023/07/02 02:40:15;;;;;;;5.82;3.65;;;19.30;89.90;;;;;;5020051;28;20072;-84
2023/07/02 02:42:40;;;;;;;6.95;4.28;;;19.30;89.90;;;;;;5003990;28;20080;-84
2023/07/02 02:45:06;;;;;;;6.82;4.15;;;19.30;89.90;;;;;;5003302;28;20113;-85
2023/07/02 02:47:32;;;;;;;6.82;4.07;;;19.30;89.90;;;;;;5020818;28;20093;-84
2023/07/02 02:49:59;;;;;;;6.72;4.00;;;19.20;89.90;;;;;;5012101;28;20053;-82
2023/07/02 02:52:25;;;;;;;6.40;3.97;;;19.30;90.00;;;;;;5003249;28;20022;-86
2023/07/02 02:54:52;;;;;;;7.93;4.45;;;19.30;90.00;;;;;;5021059;28;20013;-85
2023/07/02 02:57:18;;;;;;;8.55;4.40;;;19.30;90.00;;;;;;5001366;28;20022;-83
2023/07/02 02:59:43;;;;;;;6.82;4.47;;;19.30;90.00;;;;;;4996319;28;20069;-84
2023/07/02 03:02:09;;;;;;;7.00;4.40;;;19.20;90.00;;;;;;4997715;28;20395;-84
2023/07/02 03:04:34;;;;;;;7.50;4.35;;;19.30;90.10;;;;;;4980252;28;20026;-84
2023/07/02 03:07:00;;;;;;;6.70;4.45;;;19.30;90.00;;;;;;4997329;28;20035;-83
2023/07/02 03:09:25;;;;;;;7.30;4.50;;;19.30;90.10;;;;;;4993236;28;20034;-83
2023/07/02 03:11:51;;;;;;;7.57;5.13;;;19.30;90.10;;;;;;4998363;28;20038;-84
2023/07/02 03:14:16;;;;;;;7.07;4.85;;;19.30;90.10;;;;;;4999230;28;20133;-85
2023/07/02 03:16:45;;;;;;;7.93;5.07;;;19.20;90.10;;;;;;5002031;28;20029;-85
2023/07/02 03:19:10;;;;;;;6.88;5.10;;;19.30;90.10;;;;;;4997734;28;20451;-84
2023/07/02 03:21:36;;;;;;;9.23;5.30;;;19.30;90.00;;;;;;5018876;28;20030;-87
2023/07/02 03:24:01;;;;;;;8.40;5.50;;;19.30;90.00;;;;;;5004193;28;20148;-84
2023/07/02 03:26:27;;;;;;;8.75;4.97;;;19.30;90.00;;;;;;5003936;28;20022;-85
2023/07/02 03:28:52;;;;;;;7.45;5.30;;;19.30;89.80;;;;;;5002968;28;20022;-84
2023/07/02 03:31:18;;;;;;;8.82;5.53;;;19.40;89.80;;;;;;5003179;28;20037;-83
2023/07/02 03:33:43;;;;;;;7.88;5.38;;;19.30;89.70;;;;;;5002773;28;20029;-83
2023/07/02 03:36:09;;;;;;;9.32;6.35;;;19.30;89.70;;;;;;5003080;28;20568;-86
2023/07/02 03:38:34;;;;;;;9.07;6.80;;;19.40;89.70;;;;;;5012678;28;20034;-83
2023/07/02 03:41:00;;;;;;;9.98;6.65;;;19.30;89.60;;;;;;5001973;28;20057;-81
2023/07/02 03:43:25;;;;;;;9.73;6.20;;;19.30;89.60;;;;;;5020365;28;20030;-84
2023/07/02 03:45:52;;;;;;;8.13;6.15;;;19.30;89.60;;;;;;5018735;28;20101;-86
2023/07/02 03:48:17;;;;;;;10.73;7.13;;;19.40;89.70;;;;;;5018045;28;20113;-85
2023/07/02 03:50:43;;;;;;;11.50;7.10;;;19.30;89.90;;;;;;4981624;28;20054;-83
2023/07/02 03:53:09;;;;;;;13.15;7.15;;;19.30;90.00;;;;;;4996549;28;20033;-83
2023/07/02 03:55:34;;;;;;;13.45;6.45;;;19.30;90.10;;;;;;4981117;28;20022;-84
2023/07/02 03:58:00;;;;;;;10.38;6.85;;;19.30;90.10;;;;;;5003763;28;20036;-86
2023/07/02 04:00:25;;;;;;;11.07;6.30;;;19.20;90.00;;;;;;5013176;28;20030;-84
2023/07/02 04:02:50;;;;;;;12.45;6.07;;;19.20;90.00;;;;;;4980235;28;20041;-84
2023/07/02 04:05:16;;;;;;;10.75;6.10;;;19.20;90.00;;;;;;4980139;28;20018;-84
2023/07/02 04:07:41;;;;;;;10.98;6.25;;;19.20;90.00;;;;;;5000340;28;20022;-83
2023/07/02 04:10:07;;;;;;;10.05;5.97;;;19.20;90.00;;;;;;5016878;28;20026;-84
2023/07/02 04:12:33;;;;;;;9.23;5.40;;;19.20;90.00;;;;;;4998971;28;20018;-85
2023/07/02 04:14:58;;;;;;;9.65;5.70;;;19.20;90.00;;;;;;4998741;28;20104;-84
2023/07/02 04:17:24;;;;;;;9.23;5.47;;;19.20;89.90;;;;;;4998525;28;20033;-85
2023/07/02 04:19:49;;;;;;;8.02;5.20;;;19.20;89.90;;;;;;4979186;28;20089;-83
2023/07/02 04:22:15;;;;;;;9.48;5.47;;;19.20;89.80;;;;;;5007491;28;20461;-84
2023/07/02 04:24:40;;;;;;;10.30;5.68;;;19.20;89.70;;;;;;4997983;28;20037;-81
2023/07/02 04:27:06;;;;;;;9.43;5.65;;;19.20;89.70;;;;;;4997601;28;20360;-84
2023/07/02 04:29:31;;;;;;;8.02;5.00;;;19.30;89.70;;;;;;4980230;28;20088;-83
2023/07/02 04:31:57;;;;;;;10.38;5.18;;;19.20;89.60;;;;;;4995731;28;20034;-84
2023/07/02 04:34:22;;;;;;;9.70;5.18;;;19.20;90.00;;;;;;4977829;28;20715;-82
2023/07/02 04:36:48;;;;;;;10.65;5.47;;;19.20;89.50;;;;;;4995096;28;20109;-83
2023/07/02 04:39:13;;;;;;;9.18;4.88;;;19.20;89.40;;;;;;4992483;28;20040;-83
2023/07/02 04:41:39;;;;;;;8.88;4.50;;;19.20;89.40;;;;;;4996162;28;20034;-86
2023/07/02 04:44:04;;;;;;;8.95;5.00;;;19.20;89.30;;;;;;4991160;28;20026;-83
2023/07/02 04:46:30;;;;;;;9.05;4.63;;;19.20;89.20;;;;;;4986944;28;20026;-84
2023/07/02 04:48:55;;;;;;;12.30;4.93;;;19.20;89.10;;;;;;4976899;28;20037;-84
2023/07/02 04:51:21;;;;;;;8.38;4.65;;;19.20;89.10;;;;;;4985366;28;20025;-82
2023/07/02 04:53:47;;;;;;;10.07;5.10;;;19.20;89.00;;;;;;4995887;28;20018;-84
2023/07/02 04:56:12;;;;;;;8.80;4.60;;;19.20;89.10;;;;;;4990636;28;20037;-83
2023/07/02 04:58:38;;;;;;;11.00;5.13;;;19.20;88.90;;;;;;5004631;28;20018;-84
2023/07/02 05:01:04;;;;;;;7.68;4.38;;;19.20;88.80;;;;;;4995908;28;20026;-83
2023/07/02 05:03:30;;;;;;;12.88;5.10;;;19.20;88.80;;;;;;4995999;28;20402;-84
2023/07/02 05:05:55;;;;;;;9.20;4.82;;;19.20;88.60;;;;;;4999149;28;20022;-84
2023/07/02 05:08:21;;;;;;;10.20;4.63;;;19.20;88.50;;;;;;4995138;28;20022;-84
2023/07/02 05:10:46;;;;;;;9.32;4.82;;;19.30;88.50;;;;;;5016676;28;20022;-84
2023/07/02 05:13:12;;;;;;;8.82;5.00;;;19.30;88.40;;;;;;4998905;28;20113;-83
2023/07/02 05:15:37;;;;;;;14.05;4.90;;;19.30;88.20;;;;;;4998959;28;20022;-84
2023/07/02 05:18:03;;;;;;;11.73;4.93;;;19.30;88.20;;;;;;4990443;28;20073;-84
2023/07/02 05:20:28;;;;;;;9.95;5.05;;;19.30;88.20;;;;;;4976584;28;20484;-83
2023/07/02 05:22:54;;;;;;;8.68;4.38;;;19.30;88.10;;;;;;4979170;28;20034;-84
2023/07/02 05:25:19;;;;;;;10.75;4.90;;;19.30;88.10;;;;;;4978749;28;20015;-84
2023/07/02 05:27:45;;;;;;;9.85;4.78;;;19.30;88.10;;;;;;4982740;28;20498;-83
2023/07/02 05:30:11;;;;;;;12.30;5.38;;;19.30;88.10;;;;;;5015708;28;20106;-84
2023/07/02 05:32:36;;;;;;;11.77;4.97;;;19.30;88.10;;;;;;4997853;28;20029;-83
2023/07/02 05:35:03;;;;;;;10.25;4.65;;;19.30;88.10;;;;;;4997777;28;20022;-84
2023/07/02 05:37:28;;;;;;;9.77;4.88;;;19.20;88.20;;;;;;4997248;28;20053;-83
2023/07/02 05:39:54;;;;;;;11.40;5.47;;;19.20;88.20;;;;;;4997311;28;20061;-82
2023/07/02 05:42:19;;;;;;;10.63;5.32;;;19.20;88.10;;;;;;4997780;28;20022;-84
2023/07/02 05:44:45;;;;;;;11.07;5.13;;;19.20;88.00;;;;;;4997862;28;20029;-84
2023/07/02 05:47:10;;;;;;;10.20;4.85;;;19.20;88.00;;;;;;5015001;28;20037;-84
2023/07/02 05:49:35;;;;;;;12.68;5.30;;;19.20;88.00;;;;;;4997258;28;20495;-84
2023/07/02 05:52:01;;;;;;;11.63;6.00;;;19.20;87.90;;;;;;5014267;28;20026;-85
2023/07/02 05:54:26;;;;;;;11.20;5.68;;;19.20;87.80;;;;;;5000337;28;20038;-84
2023/07/02 05:56:54;;;;;;;11.20;5.60;;;19.20;87.70;;;;;;5001414;28;20034;-86
2023/07/02 05:59:20;;;;;;;11.90;5.85;;;19.20;87.70;;;;;;5014746;28;20036;-87
2023/07/02 06:01:46;;;;;;;10.82;5.60;;;19.20;87.70;;;;;;4992374;28;20034;-85
2023/07/02 06:04:11;;;;;;;8.93;5.10;;;19.20;87.70;;;;;;5017969;28;20096;-86
2023/07/02 06:06:37;;;;;;;10.82;5.03;;;19.20;87.60;;;;;;4993350;28;20022;-86
2023/07/02 06:33:56;;;;;;;12.52;5.40;;;19.30;87.20;;;;;;4979932;28;20121;-85
2023/07/02 06:40:24;;;;;;;11.18;6.15;;;19.30;86.90;;;;;;4986561;28;20076;-85
2023/07/02 06:42:49;;;;;;;11.77;5.85;;;19.40;86.80;;;;;;4971485;28;20048;-87
2023/07/02 07:39:45;;;;;;;13.23;5.75;;;19.40;85.50;;;;;;5076665;23;20066;-84
2023/07/02 07:42:11;;;;;;;13.10;6.50;;;19.40;85.50;;;;;;4976137;28;20014;-83
2023/07/02 07:44:39;;;;;;;16.27;6.78;;;19.50;85.20;;;;;;4975484;28;20495;-84
2023/07/02 07:47:05;;;;;;;16.17;6.90;;;19.40;85.00;;;;;;4992583;28;20041;-83
2023/07/02 07:49:33;;;;;;;16.65;6.72;;;19.50;84.90;;;;;;4992752;28;20030;-83
2023/07/02 07:51:59;;;;;;;15.02;6.20;;;19.50;84.80;;;;;;4975723;28;20581;-84
2023/07/02 07:54:24;;;;;;;14.20;5.68;;;19.50;84.60;;;;;;4976190;28;20062;-85
2023/07/02 07:56:50;;;;;;;14.45;6.32;;;19.50;84.50;;;;;;4978907;28;20117;-84
2023/07/02 07:59:15;;;;;;;13.48;5.97;;;19.50;84.20;;;;;;4978910;28;20038;-82
2023/07/02 08:01:41;;;;;;;15.88;6.72;;;19.50;84.10;;;;;;4978435;28;20085;-82
2023/07/02 08:04:06;;;;;;;14.55;6.18;;;19.60;84.00;;;;;;4978755;28;20080;-85
2023/07/02 08:06:32;;;;;;;14.48;6.35;;;19.50;83.60;;;;;;4975978;28;20084;-83
2023/07/02 08:11:48;;;;;;;16.48;7.32;;;19.50;82.90;;;;;;5017707;23;20055;-85
2023/07/02 08:33:46;;;;;;;13.77;6.43;;;19.50;81.60;;;;;;4953076;29;20068;-83
2023/07/02 09:18:32;;;;;;;12.57;5.78;;;19.50;80.70;;;;;;4929329;23;20061;-82
2023/07/02 10:45:13;;;;;;;11.27;5.97;;;19.60;80.30;;;;;;4986774;28;20073;-81
2023/07/02 10:48:31;;;;;;;11.15;5.53;;;19.60;80.00;;;;;;4995785;28;20022;-80
2023/07/02 10:51:34;;;;;;;;;;;;;;;;;;;;;
2023/07/02 10:54:26;;;;;;;12.77;5.10;;;19.50;80.20;;;;;;4993508;28;20034;-81
2023/07/02 10:56:58;;;;;;;13.23;5.95;;;19.50;80.40;;;;;;4991981;28;20411;-81
2023/07/02 10:59:25;;;;;;;12.45;5.43;;;19.60;80.50;;;;;;4980616;28;20490;-79
2023/07/02 11:01:51;;;;;;;11.98;5.38;;;19.50;80.60;;;;;;4990455;28;20098;-81
2023/07/02 11:04:16;;;;;;;11.48;5.60;;;19.60;80.50;;;;;;4992748;28;20564;-82
2023/07/02 11:06:42;;;;;;;10.73;5.43;;;19.50;80.40;;;;;;4989128;28;20423;-82
2023/07/02 11:09:17;;;;;;;10.63;5.15;;;19.50;80.40;;;;;;4994408;28;20026;-82
2023/07/02 11:11:59;;;;;;;12.55;5.60;;;19.60;80.40;;;;;;4988818;28;20118;-83
2023/07/02 11:14:32;;;;;;;12.38;5.60;;;19.60;80.40;;;;;;4975690;28;20084;-83
2023/07/02 11:16:58;;;;;;;11.38;5.53;;;19.60;80.20;;;;;;4993172;28;20038;-84
2023/07/02 11:19:24;;;;;;;10.70;5.60;;;19.70;80.20;;;;;;4991292;28;20030;-82
2023/07/02 11:21:52;;;;;;;11.43;5.40;;;19.70;80.30;;;;;;4976020;28;20030;-82
2023/07/02 11:24:28;;;;;;;11.30;5.38;;;19.70;80.20;;;;;;4995573;28;20057;-83
2023/07/02 11:26:53;;;;;;;10.68;4.97;;;19.70;80.20;;;;;;4975190;28;20026;-83
2023/07/02 11:29:19;;;;;;;11.27;5.65;;;19.70;80.20;;;;;;4975898;28;20049;-84
2023/07/02 11:31:44;;;;;;;14.57;5.75;;;19.70;80.20;;;;;;5011610;28;20117;-83
2023/07/02 11:34:17;;;;;;;10.90;5.22;;;19.80;80.30;;;;;;4995150;28;20025;-83
2023/07/02 11:36:43;;;;;;;13.15;4.82;;;19.80;80.30;;;;;;4994907;28;20069;-83
2023/07/02 11:39:08;;;;;;;13.35;5.55;;;19.80;80.10;;;;;;4979944;28;20147;-83
2023/07/02 11:41:38;;;;;;;16.95;6.15;;;19.80;80.10;;;;;;4990468;28;20088;-80
2023/07/02 11:44:03;;;;;;;14.85;5.40;;;19.90;80.20;;;;;;4994580;28;20041;-82
2023/07/02 11:46:29;;;;;;;13.55;6.07;;;19.90;80.20;;;;;;4994245;28;20030;-83
2023/07/02 11:48:54;;;;;;;14.45;5.45;;;19.90;80.10;;;;;;4994525;28;20041;-83
2023/07/02 11:51:20;;;;;;;12.75;5.38;;;19.90;80.10;;;;;;4991111;28;20029;-81
2023/07/02 11:53:48;;;;;;;13.50;5.45;;;20.00;80.10;;;;;;4997697;28;20042;-81
2023/07/02 11:56:13;;;;;;;19.55;6.07;;;20.00;80.10;;;;;;4992198;28;20052;-82
2023/07/02 11:58:40;;;;;;;14.63;5.15;;;20.00;80.10;;;;;;4974620;28;20511;-82
2023/07/02 12:01:06;;;;;;;13.50;5.22;;;20.00;80.20;;;;;;4997698;28;20100;-83
2023/07/02 12:03:31;;;;;;;14.18;5.50;;;19.90;80.30;;;;;;5002219;28;20030;-81
2023/07/02 12:05:57;;;;;;;13.90;5.93;;;19.90;80.50;;;;;;4975191;28;20025;-82
2023/07/02 12:08:22;;;;;;;16.23;5.47;;;19.90;80.50;;;;;;4981054;28;20022;-82
2023/07/02 12:10:48;;;;;;;16.08;5.35;;;19.90;80.70;;;;;;5004808;28;20394;-83
2023/07/02 12:13:14;;;;;;;11.60;5.18;;;19.90;80.80;;;;;;4981580;28;20470;-82
2023/07/02 12:15:39;;;;;;;11.55;5.05;;;19.90;80.90;;;;;;5014524;28;20042;-83
2023/07/02 12:18:05;;;;;;;11.65;5.38;;;19.80;80.90;;;;;;4992381;28;20155;-82
2023/07/02 12:20:30;;;;;;;12.20;5.30;;;19.80;81.00;;;;;;4996092;28;20038;-83
2023/07/02 12:22:57;;;;;;;12.32;5.25;;;19.80;81.00;;;;;;4978299;28;20230;-83
2023/07/02 12:25:22;;;;;;;11.73;5.50;;;19.80;81.20;;;;;;4978226;28;20030;-83
2023/07/02 12:27:48;;;;;;;12.45;5.30;;;19.80;81.20;;;;;;4981202;28;20489;-82
2023/07/02 12:30:17;;;;;;;9.48;4.80;;;19.80;81.20;;;;;;4998019;28;20438;-82
2023/07/02 12:32:43;;;;;;;14.88;5.05;;;19.80;81.20;;;;;;4998259;28;20025;-84
2023/07/02 12:35:08;;;;;;;12.80;5.15;;;19.80;81.30;;;;;;4998707;28;20030;-84
2023/07/02 12:37:34;;;;;;;10.88;5.22;;;19.80;81.40;;;;;;4998842;28;20037;-85
2023/07/02 12:40:00;;;;;;;10.18;5.10;;;19.80;81.40;;;;;;5000470;28;20080;-84
2023/07/02 12:42:25;;;;;;;12.88;5.15;;;19.80;81.50;;;;;;5000279;28;20076;-83
2023/07/02 12:44:51;;;;;;;10.43;4.95;;;19.80;81.50;;;;;;5000351;28;20056;-84
2023/07/02 12:47:16;;;;;;;9.60;4.60;;;19.80;81.50;;;;;;5017425;28;20022;-82
2023/07/02 12:49:42;;;;;;;9.80;4.68;;;19.80;81.50;;;;;;4999070;28;20593;-82
2023/07/02 12:52:07;;;;;;;9.23;4.60;;;19.80;81.50;;;;;;4999243;28;20022;-82
2023/07/02 12:54:33;;;;;;;10.00;4.47;;;19.80;81.50;;;;;;5002929;28;20092;-83
2023/07/02 12:56:58;;;;;;;9.88;4.88;;;19.80;81.60;;;;;;5010231;28;20026;-83
2023/07/02 12:59:24;;;;;;;11.68;5.18;;;19.80;81.60;;;;;;4994629;28;20668;-83
2023/07/02 13:01:49;;;;;;;11.18;5.20;;;19.80;81.60;;;;;;4998519;28;20145;-85
2023/07/02 13:04:15;;;;;;;9.25;4.85;;;19.80;81.70;;;;;;4995372;28;20577;-82
2023/07/02 13:06:41;;;;;;;11.90;5.00;;;19.80;81.70;;;;;;4978756;28;20038;-82
2023/07/02 13:09:07;;;;;;;8.90;4.63;;;19.80;81.60;;;;;;4990782;28;20447;-84
2023/07/02 13:11:33;;;;;;;11.77;4.68;;;19.80;81.50;;;;;;4997625;28;20026;-84
2023/07/02 13:13:58;;;;;;;9.07;4.43;;;19.90;81.60;;;;;;4998435;28;20245;-82
2023/07/02 13:16:24;;;;;;;9.63;4.78;;;19.90;81.40;;;;;;4997546;28;20084;-83
2023/07/02 13:18:49;;;;;;;9.27;4.55;;;19.90;81.30;;;;;;4997380;28;20683;-82
2023/07/02 13:21:15;;;;;;;9.65;4.53;;;19.90;81.20;;;;;;5017265;28;20022;-85
2023/07/02 13:23:41;;;;;;;8.68;4.50;;;20.00;81.20;;;;;;5000647;28;20033;-83
2023/07/02 13:26:06;;;;;;;9.15;4.63;;;19.90;81.10;;;;;;5006729;28;20106;-84
2023/07/02 13:28:32;;;;;;;8.82;4.40;;;20.00;81.30;;;;;;4996994;28;20042;-82
2023/07/02 13:30:57;;;;;;;9.18;4.65;;;20.00;81.20;;;;;;4992756;28;20480;-84
2023/07/02 13:33:22;;;;;;;8.73;4.50;;;19.90;81.30;;;;;;4998931;28;20101;-84
2023/07/02 13:35:49;;;;;;;10.32;4.47;;;19.90;81.20;;;;;;4999159;28;20030;-84
2023/07/02 13:38:14;;;;;;;8.68;4.60;;;19.90;81.30;;;;;;4998042;28;20025;-83
2023/07/02 13:40:40;;;;;;;8.63;4.65;;;19.90;81.40;;;;;;4992443;28;20036;-83
2023/07/02 13:43:05;;;;;;;10.68;4.75;;;19.90;81.50;;;;;;4994943;28;20094;-83
2023/07/02 13:45:31;;;;;;;8.38;4.75;;;19.90;81.60;;;;;;4995908;28;20117;-82
2023/07/02 13:47:57;;;;;;;9.75;4.40;;;19.90;81.70;;;;;;5015147;28;20025;-82
2023/07/02 13:50:22;;;;;;;7.80;4.05;;;19.80;81.70;;;;;;4997174;28;20037;-85
2023/07/02 13:52:49;;;;;;;10.15;4.80;;;20.00;82.00;;;;;;4993995;28;20077;-82
2023/07/02 13:55:15;;;;;;;8.38;4.38;;;19.80;81.90;;;;;;4993892;28;20034;-82
2023/07/02 13:57:41;;;;;;;7.78;4.00;;;19.80;81.90;;;;;;4995705;28;20054;-83
2023/07/02 14:00:07;;;;;;;9.05;4.60;;;19.80;82.00;;;;;;5014388;28;20030;-84
2023/07/02 14:02:33;;;;;;;8.70;4.45;;;19.80;82.00;;;;;;5015368;28;20545;-83
2023/07/02 14:04:58;;;;;;;8.13;4.07;;;19.80;82.00;;;;;;5014829;28;20041;-84
2023/07/02 14:07:27;;;;;;;8.27;4.28;;;19.80;82.10;;;;;;4997143;28;20025;-84
2023/07/02 14:09:56;;;;;;;6.97;3.78;;;19.80;82.20;;;;;;4993675;28;20022;-83
2023/07/02 14:12:47;;;;;;;9.40;4.95;;;19.80;82.20;;;;;;4992361;28;20034;-83
2023/07/02 14:15:27;;;;;;;9.55;5.25;;;20.60;82.70;;;;;;4993608;28;20034;-83
2023/07/02 14:18:05;;;;;;;;;;;;;;;;;;;;;
2023/07/02 14:20:31;;;;;;;7.70;4.30;;;19.80;82.40;;;;;;5014219;28;20052;-82
2023/07/02 14:23:36;;;;;;;9.20;4.25;;;20.60;82.80;;;;;;4987175;28;20121;-84
2023/07/02 14:26:04;;;;;;;11.65;4.78;;;19.90;82.40;;;;;;4990386;28;20022;-82
2023/07/02 14:28:35;;;;;;;8.48;4.25;;;20.50;82.70;;;;;;4993415;28;20057;-83
2023/07/02 14:31:31;;;;;;;7.75;4.22;;;19.80;82.40;;;;;;4992497;28;20037;-81
2023/07/02 14:34:22;;;;;;;9.10;4.70;;;20.40;82.80;;;;;;5006774;28;20525;-82
2023/07/02 14:36:53;;;;;;;7.20;4.20;;;20.00;82.50;;;;;;5012899;28;20050;-80
2023/07/02 14:39:56;;;;;;;;;;;;;;;;;;;;;
2023/07/02 14:42:24;;;;;;;7.70;4.13;;;19.60;82.40;;;;;;5013336;28;20029;-83
2023/07/02 14:45:13;;;;;;;13.07;4.18;;;19.70;82.90;;;;;;4994801;28;20050;-82
2023/07/02 14:47:42;;;;;;;11.13;4.53;;;19.80;82.40;;;;;;4994688;28;21729;-83
2023/07/02 14:50:19;;;;;;;11.90;4.65;;;20.80;82.80;;;;;;5013527;28;20030;-83
2023/07/02 14:52:52;;;;;;;11.20;4.50;;;19.90;82.20;;;;;;5013320;28;20487;-84
2023/07/02 14:55:38;;;;;;;9.23;4.32;;;20.00;82.20;;;;;;4975994;28;20041;-83
2023/07/02 14:58:03;;;;;;;9.35;3.95;;;19.70;81.90;;;;;;4995310;28;20052;-83
2023/07/02 15:00:35;;;;;;;9.35;4.28;;;20.00;81.90;;;;;;5012788;28;20108;-82
2023/07/02 15:03:13;;;;;;;;;;;;;;;;;;;;;
2023/07/02 15:05:58;;;;;;;8.50;4.10;;;19.90;81.80;;;;;;4993476;28;20434;-83
2023/07/02 15:08:49;;;;;;;10.15;4.30;;;19.90;81.80;;;;;;4981404;28;20474;-84
2023/07/02 15:11:17;;;;;;;8.57;4.47;;;19.70;81.70;;;;;;4994955;28;20029;-83
2023/07/02 15:14:08;;;;;;;10.00;4.22;;;19.80;81.80;;;;;;4995190;28;20426;-84
2023/07/02 15:20:09;;;;;;;8.00;4.03;;;19.90;82.10;;;;;;4996003;28;20330;-83
2023/07/02 15:22:53;;;;;;;8.80;4.05;;;19.90;82.30;;;;;;4975128;28;20117;-83
2023/07/02 15:25:29;;;;;;;7.57;3.90;;;19.80;82.40;;;;;;4983707;28;20097;-81
2023/07/02 15:28:11;;;;;;;8.27;3.80;;;19.70;82.40;;;;;;4992653;28;20391;-83
2023/07/02 15:30:41;;;;;;;14.02;4.53;;;19.70;82.50;;;;;;4986332;28;20556;-82
2023/07/02 15:33:09;;;;;;;15.80;4.80;;;20.60;83.20;;;;;;4972247;28;20508;-83
2023/07/02 15:35:57;;;;;;;12.00;4.57;;;19.60;82.20;;;;;;4990553;28;20027;-82
2023/07/02 15:38:26;;;;;;;11.80;4.82;;;19.60;82.10;;;;;;4979538;28;20796;-82
2023/07/02 15:41:25;;;;;;;11.18;5.00;;;19.60;81.60;;;;;;4994439;28;20241;-82
2023/07/02 15:47:14;;;;;;;15.10;4.70;;;19.60;81.70;;;;;;5013152;28;20522;-83
2023/07/02 15:49:39;;;;;;;12.82;4.68;;;19.60;81.60;;;;;;4990068;28;20037;-85
2023/07/02 15:52:08;;;;;;;12.75;4.80;;;19.30;81.40;;;;;;4979931;28;20023;-83
2023/07/02 15:54:34;;;;;;;11.48;4.80;;;19.70;81.70;;;;;;4993214;28;20109;-83
2023/07/02 15:56:59;;;;;;;12.35;4.45;;;20.10;82.10;;;;;;4996606;28;20037;-82
2023/07/02 15:59:25;;;;;;;9.38;4.25;;;19.70;81.80;;;;;;4997449;28;20029;-83
2023/07/02 16:01:50;;;;;;;11.55;4.97;;;20.00;82.00;;;;;;4996937;28;20025;-83
2023/07/02 16:04:17;;;;;;;11.60;4.50;;;19.60;81.70;;;;;;4996257;28;20449;-84
2023/07/02 16:06:43;;;;;;;10.40;4.50;;;21.50;82.90;;;;;;4996138;28;20057;-84
2023/07/02 16:09:09;;;;;;;11.63;4.30;;;19.80;82.00;;;;;;4996419;28;20487;-83
2023/07/02 16:11:41;;;;;;;10.98;4.50;;;19.70;82.00;;;;;;4989915;28;20038;-80
2023/07/02 16:14:07;;;;;;;10.70;4.47;;;19.70;82.10;;;;;;4993010;28;20022;-83
2023/07/02 16:16:33;;;;;;;8.85;4.28;;;19.70;82.10;;;;;;4976446;28;20026;-84
2023/07/02 16:18:59;;;;;;;10.35;4.55;;;19.70;82.10;;;;;;5003948;23;20053;-80
2023/07/02 16:21:25;;;;;;;10.18;4.30;;;19.70;82.10;;;;;;4996184;28;20030;-80
2023/07/02 16:23:51;;;;;;;10.70;4.45;;;19.70;82.10;;;;;;5013596;28;20368;-81
2023/07/02 16:26:16;;;;;;;8.10;4.32;;;19.70;82.00;;;;;;4995359;28;20033;-80
2023/07/02 16:28:42;;;;;;;9.15;4.30;;;19.80;81.90;;;;;;4995590;28;20026;-80
2023/07/02 16:31:09;;;;;;;10.70;4.00;;;19.80;81.90;;;;;;4995901;28;20022;-81
2023/07/02 16:33:36;;;;;;;9.35;4.18;;;19.80;81.80;;;;;;4994577;28;20030;-79
2023/07/02 16:36:05;;;;;;;9.20;4.53;;;19.80;81.80;;;;;;4994775;28;20022;-81
2023/07/02 16:38:32;;;;;;;8.30;3.85;;;19.80;81.80;;;;;;4994850;28;20490;-82
2023/07/02 16:40:57;;;;;;;9.40;4.05;;;19.80;81.70;;;;;;4996264;28;20030;-81
2023/07/02 16:43:23;;;;;;;9.48;3.97;;;19.80;81.70;;;;;;4994550;28;20029;-81
2023/07/02 16:45:52;;;;;;;10.10;4.20;;;19.80;81.70;;;;;;4994494;28;20018;-81
2023/07/02 16:48:18;;;;;;;10.13;4.35;;;19.80;81.70;;;;;;5011853;28;20033;-81
2023/07/02 16:50:43;;;;;;;7.85;4.00;;;19.80;81.70;;;;;;4994492;28;20486;-81